This is the latest recevied weather packets stored in our database for station/object W4CKA. If no packets are shown the sender has not sent any weather packets the latest 10 day(s).
| Time | Temp. | Humidity | Pressure | Rain* | Wind** | Luminosity | Snow |
|---|---|---|---|---|---|---|---|
| 1787514596 | 29.44° C | 56% | 1057.8 hPa | 0 mm | - | 654 W/m² | - |
| 1787513991 | 27.22° C | 58% | 1057.9 hPa | 0 mm | - | 650 W/m² | - |
| 1787513388 | 27.78° C | 55% | 1058 hPa | 0 mm | - | 141 W/m² | - |
| 1787512786 | 27.22° C | 54% | 1058.2 hPa | 0 mm | - | 702 W/m² | - |
| 1787512183 | 27.78° C | 50% | 1058.1 hPa | 0 mm | - | 716 W/m² | - |
| 1787511584 | 28.33° C | 57% | 1058.2 hPa | 0 mm | - | 127 W/m² | - |
| 1787510983 | 27.22° C | 58% | 1058.4 hPa | 0 mm | - | 560 W/m² | - |
| 1787510379 | 27.78° C | 59% | 1058.2 hPa | 0 mm | - | 606 W/m² | - |
| 1787509777 | 27.22° C | 57% | 1058.5 hPa | 0 mm | - | 697 W/m² | - |
| 1787509175 | 27.78° C | 56% | 1058.6 hPa | 0 mm | - | 645 W/m² | - |
| 1787508571 | 27.22° C | 62% | 1058.9 hPa | 0 mm | - | 623 W/m² | - |
| 1787507969 | 26.11° C | 69% | 1058.9 hPa | 0 mm | - | 723 W/m² | - |
| 1787507367 | 26.11° C | 65% | 1059 hPa | 0 mm | - | 83 W/m² | - |
| 1787506764 | 26.67° C | 64% | 1058.8 hPa | 0 mm | - | 661 W/m² | - |
| 1787506161 | 25° C | 70% | 1058.9 hPa | 0 mm | - | 147 W/m² | - |
| 1787505558 | 26.67° C | 63% | 1058.9 hPa | 0 mm | - | 147 W/m² | - |
| 1787504952 | 26.67° C | 69% | 1059 hPa | 0 mm | - | 656 W/m² | - |
| 1787504350 | 25° C | 73% | 1059.1 hPa | 0 mm | - | 263 W/m² | - |
| 1787503745 | 26.67° C | 65% | 1059.1 hPa | 0 mm | - | 681 W/m² | - |
| 1787503143 | 26.11° C | 65% | 1059.5 hPa | 0 mm | - | 598 W/m² | - |
| 1787502539 | 26.11° C | 65% | 1059.7 hPa | 0 mm | - | 573 W/m² | - |
| 1787501940 | 26.11° C | 66% | 1059.5 hPa | 0 mm | - | 676 W/m² | - |
| 1787501337 | 26.67° C | 66% | 1059.7 hPa | 0 mm | - | 641 W/m² | - |
| 1787500735 | 26.11° C | 68% | 1059.8 hPa | 0 mm | - | 654 W/m² | - |
| 1787500131 | 25° C | 73% | 1059.7 hPa | 0 mm | - | 432 W/m² | - |
* Rain latest hour (hover to see other rain measurements)
** Current wind speed in m/s (hover to see current wind gust speed)